Time;durP1;ratioP1;P1;durP2;ratioP2;P2;SDS_P1;SDS_P2;PMS_P1;PMS_P2;Temp;Humidity;BMP_temperature;BMP_pressure;BME280_temperature;BME280_humidity;BME280_pressure;Samples;Min_cycle;Max_cycle;Signal;HPM_P1;HPM_P2
2023/01/18 00:00:36;;;;;;;1.83;0.90;;;;;;;12.76;47.04;93265.50;5067921;28;20024;-70
2023/01/18 00:03:01;;;;;;;4.53;1.42;;;;;;;12.85;46.65;93280.34;5068571;28;20111;-69
2023/01/18 00:05:26;;;;;;;2.78;0.80;;;;;;;12.87;46.61;93264.81;5067845;28;20119;-69
2023/01/18 00:07:52;;;;;;;1.88;0.65;;;;;;;12.90;46.68;93274.09;5066916;28;20039;-69
2023/01/18 00:10:18;;;;;;;0.90;0.60;;;;;;;12.94;46.21;93272.63;5068368;28;20051;-70
2023/01/18 00:12:44;;;;;;;1.77;0.80;;;;;;;12.97;46.23;93281.94;5067672;28;20186;-69
2023/01/18 00:15:09;;;;;;;3.25;0.88;;;;;;;12.96;46.26;93283.16;5067953;28;20028;-70
2023/01/18 00:17:46;;;;;;;4.40;0.80;;;;;;;12.97;46.31;93310.25;5067634;28;20056;-68
2023/01/18 00:20:15;;;;;;;2.25;0.70;;;;;;;12.99;45.64;93251.84;5069437;28;20468;-69
2023/01/18 00:22:40;;;;;;;1.35;0.55;;;;;;;12.99;45.68;93295.97;5071439;28;20092;-69
2023/01/18 00:25:06;;;;;;;1.33;0.80;;;;;;;12.99;45.41;93277.41;5068036;28;20135;-69
2023/01/18 00:27:31;;;;;;;6.13;0.95;;;;;;;13.08;45.34;93272.97;5068339;28;20448;-69
2023/01/18 00:29:59;;;;;;;4.32;0.80;;;;;;;13.11;45.31;93258.19;5067764;28;20017;-69
2023/01/18 00:32:24;;;;;;;3.38;0.68;;;;;;;13.14;45.31;93260.72;5067883;28;20036;-69
2023/01/18 00:34:50;;;;;;;1.33;0.73;;;;;;;13.14;45.40;93257.94;5067850;28;20067;-70
2023/01/18 00:37:15;;;;;;;2.92;1.13;;;;;;;13.18;45.36;93271.50;5067889;28;20106;-69
2023/01/18 00:39:41;;;;;;;1.98;0.77;;;;;;;13.18;45.31;93246.66;5067304;28;20021;-70
2023/01/18 00:44:50;;;;;;;2.10;0.70;;;;;;;13.20;44.90;93271.78;5068028;28;20071;-70
2023/01/18 00:47:15;;;;;;;0.85;0.50;;;;;;;13.23;44.85;93274.31;5066971;28;20457;-69
2023/01/18 00:49:41;;;;;;;1.52;0.90;;;;;;;13.24;44.92;93294.38;5067690;28;20104;-70
2023/01/18 00:52:07;;;;;;;1.23;0.70;;;;;;;13.20;44.89;93289.09;5067209;28;20174;-68
2023/01/18 00:54:32;;;;;;;2.50;0.40;;;;;;;13.20;44.80;93247.69;5067535;28;20502;-70
2023/01/18 00:56:57;;;;;;;3.13;0.57;;;;;;;13.19;44.90;93257.22;5067216;28;20035;-72
2023/01/18 00:59:23;;;;;;;1.15;0.70;;;;;;;13.20;44.93;93244.19;5065998;28;20033;-72
2023/01/18 01:01:48;;;;;;;1.27;0.47;;;;;;;13.20;44.80;93242.19;5049502;28;20021;-72
2023/01/18 01:06:58;;;;;;;1.80;0.57;;;;;;;13.20;45.12;93227.63;5069182;28;20442;-72
2023/01/18 01:09:25;;;;;;;0.60;0.40;;;;;;;13.19;45.25;93262.75;5068249;28;20487;-72
2023/01/18 01:28:21;;;;;;;0.82;0.50;;;;;;;13.25;45.05;93229.69;5065081;28;20357;-71
2023/01/18 01:30:46;;;;;;;2.55;0.50;;;;;;;13.21;45.43;93223.66;5064739;28;20021;-71
2023/01/18 01:33:12;;;;;;;1.17;0.60;;;;;;;13.16;45.43;93271.25;5066556;28;20475;-72
2023/01/18 01:35:37;;;;;;;2.33;0.52;;;;;;;13.19;45.20;93235.16;5066504;28;20157;-72
2023/01/18 01:38:03;;;;;;;3.78;0.73;;;;;;;13.25;45.10;93235.97;5066735;28;20025;-72
2023/01/18 01:40:28;;;;;;;4.60;0.90;;;;;;;13.25;45.24;93368.41;5064749;28;20036;-72
2023/01/18 01:42:54;;;;;;;4.43;0.50;;;;;;;13.24;44.96;93270.31;5048386;28;20020;-71
2023/01/18 01:45:21;;;;;;;0.70;0.52;;;;;;;13.25;45.09;93240.72;5065367;28;20533;-72
2023/01/18 01:47:47;;;;;;;4.97;0.68;;;;;;;13.25;45.07;93224.94;5064646;28;20114;-72
2023/01/18 01:50:29;;;;;;;3.80;1.08;;;;;;;13.28;44.73;93254.28;5064930;28;20065;-73
2023/01/18 01:52:55;;;;;;;3.30;0.65;;;;;;;13.28;44.79;93234.22;5064705;28;20106;-71
2023/01/18 01:55:30;;;;;;;2.33;1.10;;;;;;;13.33;44.25;93263.84;5064787;28;20047;-71
2023/01/18 01:58:03;;;;;;;2.05;0.63;;;;;;;13.35;44.33;93257.81;5065009;28;20082;-72
2023/01/18 02:00:29;;;;;;;2.17;0.60;;;;;;;13.39;43.99;93330.84;5064270;28;20108;-72
2023/01/18 02:03:01;;;;;;;3.38;0.70;;;;;;;13.48;43.62;93247.09;5066994;28;20532;-72
2023/01/18 02:05:27;;;;;;;1.17;0.40;;;;;;;13.47;43.83;93298.00;5065118;28;20033;-72
2023/01/18 02:07:53;;;;;;;2.03;0.77;;;;;;;13.43;44.02;93264.38;5064833;28;20043;-71
2023/01/18 02:10:18;;;;;;;1.17;0.43;;;;;;;13.42;44.21;93293.22;5064288;28;20447;-72
2023/01/18 02:12:46;;;;;;;5.50;1.20;;;;;;;13.45;44.31;93235.03;5064594;28;20477;-71
2023/01/18 02:15:12;;;;;;;1.13;0.70;;;;;;;13.47;44.22;93246.31;5031694;28;20127;-72
2023/01/18 02:17:52;;;;;;;5.85;2.13;;;;;;;13.45;44.47;93275.69;5064326;28;20052;-70
2023/01/18 02:20:46;;;;;;;3.33;0.70;;;;;;;13.49;44.62;93262.41;5066054;28;20047;-72
2023/01/18 02:23:32;;;;;;;3.90;1.02;;;;;;;13.44;44.81;93235.53;5064788;28;20118;-72
2023/01/18 02:26:20;;;;;;;2.63;0.90;;;;;;;13.30;44.93;93322.75;5064765;28;20036;-72
2023/01/18 02:29:05;;;;;;;6.78;1.00;;;;;;;13.27;45.20;93257.53;5066129;28;20036;-73
2023/01/18 02:31:39;;;;;;;2.08;0.65;;;;;;;13.25;45.17;93254.53;5047060;28;20463;-71
2023/01/18 02:34:25;;;;;;;3.95;0.93;;;;;;;13.27;45.24;93260.28;5064712;28;20017;-71
2023/01/18 02:37:23;;;;;;;3.97;0.95;;;;;;;13.29;45.07;93288.91;5064468;28;20094;-71
2023/01/18 02:40:10;;;;;;;4.97;1.00;;;;;;;13.22;45.08;93278.34;5047130;28;20572;-71
2023/01/18 02:48:37;;;;;;;5.15;0.90;;;;;;;13.16;45.43;93296.06;5064221;28;20662;-72
2023/01/18 02:51:03;;;;;;;3.60;0.85;;;;;;;13.15;45.47;93236.63;5065869;28;20028;-71
2023/01/18 02:53:29;;;;;;;3.95;0.90;;;;;;;13.14;45.36;93274.50;5063584;28;20017;-72
2023/01/18 02:55:58;;;;;;;2.45;0.70;;;;;;;13.16;45.32;93285.03;5047330;28;20119;-72
2023/01/18 02:58:40;;;;;;;3.88;1.00;;;;;;;13.19;45.10;93276.53;5065690;28;20024;-71
2023/01/18 03:01:09;;;;;;;3.35;0.68;;;;;;;13.18;45.13;93280.53;5066325;28;20093;-71
2023/01/18 03:03:35;;;;;;;4.28;0.77;;;;;;;13.15;45.22;93280.78;5063807;28;20086;-71
2023/01/18 03:06:02;;;;;;;2.75;0.85;;;;;;;13.23;44.85;93284.59;5063547;28;20029;-71
2023/01/18 03:08:35;;;;;;;3.50;0.80;;;;;;;13.24;44.91;93283.34;5047288;28;20017;-71
2023/01/18 03:11:08;;;;;;;2.23;1.73;;;;;;;13.23;44.86;93270.81;5064160;28;20025;-71
2023/01/18 03:13:49;;;;;;;4.63;1.08;;;;;;;13.27;44.77;93277.59;5047053;28;20093;-71
2023/01/18 03:16:21;;;;;;;2.22;0.90;;;;;;;13.28;44.59;93256.28;5065472;28;20052;-72
2023/01/18 03:19:01;;;;;;;5.90;0.98;;;;;;;13.35;44.68;93318.53;5065295;28;20045;-72
2023/01/18 03:21:40;;;;;;;2.97;0.70;;;;;;;13.29;44.55;93290.91;5063925;28;20033;-72
2023/01/18 03:24:07;;;;;;;4.63;0.90;;;;;;;13.33;44.45;93265.84;5064077;28;20037;-73
2023/01/18 03:26:38;;;;;;;5.82;1.27;;;;;;;13.37;44.49;93286.44;5063420;28;20117;-72
2023/01/18 03:34:47;;;;;;;3.67;0.70;;;;;;;13.33;44.92;93266.59;5065750;28;20059;-72
2023/01/18 03:37:36;;;;;;;3.00;1.05;;;;;;;13.35;44.71;93277.88;5065309;28;20100;-72
2023/01/18 03:40:14;;;;;;;4.13;0.63;;;;;;;13.34;44.42;93273.63;5063339;28;20025;-72
2023/01/18 03:43:01;;;;;;;4.10;0.90;;;;;;;13.28;44.67;93242.50;5063558;28;20529;-72
2023/01/18 03:45:34;;;;;;;2.92;0.88;;;;;;;13.28;44.63;93265.31;5063230;28;20115;-71
2023/01/18 03:48:00;;;;;;;4.88;0.93;;;;;;;13.25;44.61;93288.41;5063916;28;20035;-73
2023/01/18 03:50:41;;;;;;;5.72;0.90;;;;;;;13.26;44.53;93247.75;5064417;28;20048;-71
2023/01/18 03:53:11;;;;;;;4.28;0.90;;;;;;;13.23;44.88;93252.25;5067158;28;20036;-71
2023/01/18 03:55:42;;;;;;;5.88;1.00;;;;;;;13.22;44.78;93270.06;5054592;28;20028;-72
2023/01/18 03:58:11;;;;;;;2.25;0.90;;;;;;;13.21;44.71;93234.69;5067050;28;20028;-73
2023/01/18 04:00:38;;;;;;;5.72;1.20;;;;;;;13.20;44.37;93214.59;5067194;28;20029;-72
2023/01/18 04:03:03;;;;;;;3.72;0.80;;;;;;;13.26;44.35;93226.44;5067301;28;20056;-72
2023/01/18 04:05:29;;;;;;;2.50;0.73;;;;;;;13.26;44.36;93215.41;5067823;28;20506;-71
2023/01/18 04:07:54;;;;;;;5.18;0.90;;;;;;;13.25;44.15;93210.38;5067416;28;20020;-72
2023/01/18 04:10:20;;;;;;;5.95;0.75;;;;;;;13.25;44.09;93251.78;5067729;28;20025;-71
2023/01/18 04:12:45;;;;;;;3.28;0.88;;;;;;;13.24;44.56;93236.44;5068443;28;20500;-72
2023/01/18 04:15:11;;;;;;;2.97;0.90;;;;;;;13.20;44.50;93214.59;5066545;28;20509;-72
2023/01/18 04:17:36;;;;;;;1.85;0.77;;;;;;;13.19;44.51;93264.72;5050073;28;20056;-71
2023/01/18 04:20:03;;;;;;;2.78;0.82;;;;;;;13.19;44.62;93231.63;5068306;28;20032;-73
2023/01/18 04:22:28;;;;;;;4.18;0.90;;;;;;;13.20;44.59;93233.16;5066508;28;20035;-72
2023/01/18 04:24:54;;;;;;;4.18;0.88;;;;;;;13.25;44.42;93249.75;5067056;28;20032;-72
2023/01/18 04:27:19;;;;;;;3.33;1.05;;;;;;;13.26;44.36;93237.47;5067597;28;20351;-72
2023/01/18 04:29:54;;;;;;;6.15;1.27;;;;;;;13.19;44.79;93243.44;5068832;28;20161;-72
2023/01/18 04:32:21;;;;;;;4.72;1.20;;;;;;;13.17;44.82;93256.19;5067511;28;20029;-72
2023/01/18 04:34:49;;;;;;;1.35;0.65;;;;;;;13.15;44.96;93233.88;5068746;28;20048;-73
2023/01/18 04:37:14;;;;;;;3.17;0.70;;;;;;;13.11;44.81;93272.72;5066963;28;20040;-72
2023/01/18 04:39:40;;;;;;;3.40;0.75;;;;;;;13.12;44.88;93219.06;5067648;28;20422;-72
2023/01/18 04:42:05;;;;;;;3.08;0.90;;;;;;;13.12;44.93;93240.38;5066801;28;20037;-73
2023/01/18 04:44:30;;;;;;;3.28;0.85;;;;;;;13.14;44.76;93224.09;5067108;28;20028;-71
2023/01/18 04:46:56;;;;;;;6.20;1.15;;;;;;;13.00;44.93;93245.06;5068504;28;20032;-72
2023/01/18 04:49:22;;;;;;;1.90;0.73;;;;;;;13.15;44.84;93214.56;5069643;28;20040;-71
2023/01/18 04:51:47;;;;;;;7.03;1.17;;;;;;;13.19;44.93;93256.44;5068182;28;20033;-71
2023/01/18 04:54:15;;;;;;;4.28;1.05;;;;;;;13.13;44.87;93273.00;5067366;28;20495;-71
2023/01/18 04:56:41;;;;;;;2.47;0.70;;;;;;;13.13;44.69;93225.31;5066192;28;20021;-71
2023/01/18 04:59:06;;;;;;;2.55;0.82;;;;;;;13.17;44.61;93223.09;5067886;28;20041;-73
2023/01/18 05:01:32;;;;;;;3.17;1.20;;;;;;;13.18;44.59;93243.91;5064954;28;20395;-71
2023/01/18 05:03:58;;;;;;;7.00;1.50;;;;;;;13.19;44.50;93234.38;5065925;28;20029;-72
2023/01/18 05:06:23;;;;;;;3.45;0.90;;;;;;;13.21;44.58;93216.13;5048688;28;20024;-71
2023/01/18 05:08:49;;;;;;;4.85;0.70;;;;;;;13.22;44.63;93203.09;5067777;28;20483;-73
2023/01/18 05:11:16;;;;;;;4.97;0.95;;;;;;;13.24;43.94;93189.53;5065673;28;20032;-73
2023/01/18 05:13:43;;;;;;;7.50;1.08;;;;;;;13.29;44.00;93197.06;5065936;28;20020;-72
2023/01/18 05:16:14;;;;;;;5.95;0.65;;;;;;;13.31;44.15;93236.00;5065760;28;20297;-71
2023/01/18 05:18:39;;;;;;;3.00;0.82;;;;;;;13.34;44.07;93199.09;5065652;28;20029;-72
2023/01/18 05:21:05;;;;;;;4.13;1.00;;;;;;;13.30;43.95;93217.91;5049547;28;20184;-72
2023/01/18 05:23:30;;;;;;;5.85;0.95;;;;;;;13.37;43.96;93261.59;5065026;28;20024;-72
2023/01/18 05:25:56;;;;;;;4.95;0.80;;;;;;;13.40;43.57;93296.47;5065958;28;20028;-72
2023/01/18 05:28:24;;;;;;;2.47;0.93;;;;;;;13.47;43.46;93259.38;5064922;28;20027;-72
2023/01/18 05:30:50;;;;;;;5.38;1.02;;;;;;;13.43;43.85;93212.69;5067331;28;20154;-72
2023/01/18 05:33:19;;;;;;;3.53;0.55;;;;;;;13.42;43.62;93282.97;5066844;28;20035;-72
2023/01/18 05:35:53;;;;;;;5.78;1.13;;;;;;;13.41;43.70;93203.38;5065211;28;20471;-71
2023/01/18 05:38:19;;;;;;;7.65;1.55;;;;;;;13.41;43.89;93226.22;5065712;28;20115;-71
2023/01/18 05:40:46;;;;;;;5.55;0.90;;;;;;;13.40;43.86;93186.06;5065191;28;20046;-71
2023/01/18 05:43:12;;;;;;;7.35;1.52;;;;;;;13.36;43.81;93210.41;5065552;28;20020;-72
2023/01/18 05:45:38;;;;;;;6.32;1.23;;;;;;;13.40;43.55;93201.88;5067991;28;20048;-73
2023/01/18 05:48:03;;;;;;;2.72;0.75;;;;;;;13.45;43.63;93229.50;5065191;28;20028;-72
2023/01/18 05:50:29;;;;;;;3.42;0.73;;;;;;;13.50;43.47;93225.25;5048274;28;20028;-71
2023/01/18 05:52:57;;;;;;;3.45;0.63;;;;;;;13.49;43.43;93260.41;5048692;28;20055;-71
2023/01/18 05:55:22;;;;;;;2.13;0.85;;;;;;;13.54;43.32;93236.84;5066468;28;20036;-71
2023/01/18 05:57:48;;;;;;;4.85;0.70;;;;;;;13.58;42.87;93215.25;5064634;28;20021;-72
2023/01/18 06:00:13;;;;;;;3.55;0.77;;;;;;;13.57;43.25;93259.91;5063558;28;20044;-72
2023/01/18 06:02:39;;;;;;;5.00;1.02;;;;;;;13.61;43.04;93239.09;5062554;28;20041;-70
2023/01/18 06:05:04;;;;;;;4.88;0.80;;;;;;;13.64;43.17;93218.00;5065361;28;20029;-71
2023/01/18 06:07:30;;;;;;;4.30;1.00;;;;;;;13.62;43.13;93262.69;5064946;28;20024;-71
2023/01/18 06:09:55;;;;;;;4.65;1.27;;;;;;;13.59;43.10;93235.31;5065925;28;20029;-71
2023/01/18 06:12:20;;;;;;;5.60;1.00;;;;;;;13.65;43.27;93264.47;5066383;28;20501;-71
2023/01/18 06:14:46;;;;;;;4.40;0.85;;;;;;;13.59;43.44;93232.56;5064413;28;20056;-71
2023/01/18 06:17:11;;;;;;;3.47;0.95;;;;;;;13.59;43.43;93240.84;5064904;28;20423;-71
2023/01/18 06:19:37;;;;;;;1.67;0.70;;;;;;;13.57;43.84;93257.16;5065481;28;20017;-70
2023/01/18 06:22:02;;;;;;;5.47;1.20;;;;;;;13.59;43.91;93277.50;5066056;28;20035;-70
2023/01/18 06:24:27;;;;;;;4.10;0.93;;;;;;;13.45;43.99;93265.41;5047035;28;20032;-70
2023/01/18 06:26:53;;;;;;;2.80;0.98;;;;;;;13.50;44.10;93250.84;5066031;28;20028;-71
2023/01/18 06:29:18;;;;;;;5.05;1.15;;;;;;;13.46;44.28;93279.94;5065682;28;20479;-71
2023/01/18 06:31:43;;;;;;;3.25;1.00;;;;;;;13.47;44.00;93378.81;5064009;28;20024;-72
2023/01/18 06:34:09;;;;;;;3.28;0.73;;;;;;;13.53;44.32;93312.59;5064815;28;20107;-72
2023/01/18 06:36:38;;;;;;;4.38;1.63;;;;;;;13.51;44.57;93265.41;5065142;28;20093;-73
2023/01/18 06:39:04;;;;;;;3.35;0.70;;;;;;;13.48;44.41;93209.22;5064516;28;20044;-71
2023/01/18 06:41:29;;;;;;;3.47;0.50;;;;;;;13.54;44.22;93375.63;5067958;28;20036;-71
2023/01/18 06:43:55;;;;;;;2.97;0.95;;;;;;;13.61;44.29;93321.19;5064610;28;20514;-71
2023/01/18 06:46:20;;;;;;;3.80;1.05;;;;;;;13.59;44.31;93266.47;5065982;28;20024;-71
2023/01/18 06:48:46;;;;;;;6.15;1.00;;;;;;;13.59;44.52;93258.19;5065742;28;20032;-71
2023/01/18 06:51:11;;;;;;;5.82;1.13;;;;;;;13.62;44.14;93239.84;5064458;28;20024;-72
2023/01/18 06:53:38;;;;;;;2.35;1.15;;;;;;;13.64;44.02;93256.66;5064205;28;20027;-71
2023/01/18 06:56:04;;;;;;;4.80;1.05;;;;;;;13.69;44.28;93236.59;5064536;28;20082;-70
2023/01/18 06:58:31;;;;;;;7.85;1.30;;;;;;;13.70;44.19;93244.38;5063585;28;20020;-72
2023/01/18 07:00:58;;;;;;;6.13;0.80;;;;;;;13.69;44.24;93344.28;5065677;28;20487;-72
2023/01/18 07:03:25;;;;;;;7.43;1.30;;;;;;;13.69;44.32;93294.59;5063777;28;20042;-72
2023/01/18 07:05:55;;;;;;;4.30;0.85;;;;;;;13.76;44.30;93300.41;5065532;28;20028;-72
2023/01/18 07:08:22;;;;;;;3.47;0.90;;;;;;;13.78;44.17;93223.34;5065665;28;20075;-73
2023/01/18 07:10:48;;;;;;;3.00;0.70;;;;;;;13.81;44.15;93312.72;5063936;28;20137;-73
2023/01/18 07:13:13;;;;;;;3.55;0.77;;;;;;;13.87;43.90;93241.66;5047528;28;20028;-73
2023/01/18 07:15:39;;;;;;;3.80;1.23;;;;;;;13.90;43.88;93215.06;5064547;28;20107;-72
2023/01/18 07:18:04;;;;;;;6.55;1.23;;;;;;;13.95;43.71;93231.66;5065406;28;20029;-73
2023/01/18 07:20:30;;;;;;;4.93;0.93;;;;;;;14.05;43.27;93263.31;5063410;28;20092;-71
2023/01/18 07:22:55;;;;;;;5.88;1.17;;;;;;;14.17;42.90;93225.41;5065776;28;20456;-72
2023/01/18 07:25:21;;;;;;;1.33;0.60;;;;;;;14.18;42.92;93259.31;5065933;28;20020;-72
2023/01/18 07:27:47;;;;;;;7.28;0.80;;;;;;;14.28;42.82;93210.84;5068988;28;20032;-72
2023/01/18 07:30:13;;;;;;;3.58;0.93;;;;;;;14.35;42.37;93387.25;5068102;28;20024;-71
2023/01/18 07:32:45;;;;;;;3.55;1.00;;;;;;;14.40;42.01;93262.09;5067313;28;20024;-72
2023/01/18 07:35:10;;;;;;;3.97;1.20;;;;;;;14.33;42.05;93212.84;5068489;28;20029;-72
2023/01/18 07:37:37;;;;;;;13.30;2.13;;;;;;;14.31;42.18;93381.94;5070121;28;20036;-73
2023/01/18 07:40:03;;;;;;;7.82;1.25;;;;;;;14.33;42.28;93277.16;5069374;28;20082;-73
2023/01/18 07:42:28;;;;;;;7.00;1.13;;;;;;;14.55;42.14;93276.44;5067543;28;20017;-73
2023/01/18 07:44:54;;;;;;;6.10;1.13;;;;;;;14.59;42.01;93288.03;5068039;28;20032;-73
2023/01/18 07:47:19;;;;;;;7.28;1.50;;;;;;;14.80;41.55;93269.16;5069354;28;20046;-72
2023/01/18 07:49:45;;;;;;;4.90;1.20;;;;;;;14.79;41.40;93297.31;5068577;28;20036;-73
2023/01/18 07:52:10;;;;;;;4.22;1.30;;;;;;;14.87;41.47;93310.16;5069523;28;20104;-73
2023/01/18 07:54:36;;;;;;;3.50;0.93;;;;;;;15.09;40.91;93417.31;5068356;28;20102;-73
2023/01/18 07:57:01;;;;;;;8.07;1.20;;;;;;;15.25;40.46;93437.94;5069196;28;20057;-72
2023/01/18 07:59:31;;;;;;;8.07;1.73;;;;;;;15.29;40.14;93294.47;5066776;28;20058;-72
2023/01/18 08:01:56;;;;;;;2.85;1.15;;;;;;;15.59;39.57;93325.09;5051211;28;20021;-73
2023/01/18 08:04:23;;;;;;;6.45;1.52;;;;;;;15.61;39.73;93325.38;5068830;28;20028;-74
2023/01/18 08:06:59;;;;;;;6.07;1.33;;;;;;;15.59;39.37;93355.56;5068419;28;20047;-74
2023/01/18 08:09:26;;;;;;;8.23;1.58;;;;;;;15.66;39.31;93371.72;5057237;28;20119;-72
2023/01/18 08:11:51;;;;;;;4.50;1.05;;;;;;;15.66;39.03;93332.94;5105899;28;20039;-72
2023/01/18 08:14:17;;;;;;;6.85;1.52;;;;;;;15.71;39.05;93397.88;5089732;28;20089;-73
2023/01/18 08:16:42;;;;;;;6.65;1.30;;;;;;;15.71;39.31;93439.44;5105676;28;20058;-72
2023/01/18 08:19:07;;;;;;;4.75;1.60;;;;;;;16.05;38.63;93478.16;5088737;28;20036;-74
2023/01/18 08:21:33;;;;;;;9.23;1.20;;;;;;;16.94;36.93;93468.75;5052338;28;20032;-73
2023/01/18 08:23:59;;;;;;;6.85;2.65;;;;;;;17.93;34.87;93379.56;5086001;28;20382;-73
2023/01/18 08:26:25;;;;;;;6.32;1.10;;;;;;;18.02;34.79;93393.13;5086563;28;20024;-72
2023/01/18 08:28:51;;;;;;;5.32;1.00;;;;;;;18.25;34.22;93406.78;5084963;28;20446;-72
2023/01/18 08:31:18;;;;;;;11.73;2.10;;;;;;;19.03;33.24;93394.59;5069149;28;20027;-74
2023/01/18 08:33:46;;;;;;;7.50;1.15;;;;;;;19.20;33.03;93454.88;5069141;28;20028;-73
2023/01/18 08:36:14;;;;;;;4.57;1.23;;;;;;;18.97;32.81;93360.53;5085929;28;20032;-73
2023/01/18 08:38:39;;;;;;;10.20;1.52;;;;;;;19.74;31.88;93401.59;5068767;28;20023;-73
2023/01/18 08:41:05;;;;;;;9.25;1.27;;;;;;;19.94;31.51;93450.41;5066772;28;20043;-73
2023/01/18 08:43:30;;;;;;;5.68;1.40;;;;;;;19.32;32.64;93408.84;5066916;28;20090;-73
2023/01/18 08:45:56;;;;;;;4.53;1.35;;;;;;;19.53;32.10;93400.66;5067786;28;20028;-74
2023/01/18 08:48:21;;;;;;;3.25;1.23;;;;;;;19.55;31.80;93482.44;5068239;28;20494;-73
2023/01/18 08:50:46;;;;;;;6.13;1.70;;;;;;;19.71;31.76;93438.13;5066021;28;20131;-73
2023/01/18 08:53:12;;;;;;;4.65;1.50;;;;;;;20.29;30.96;93519.00;5066961;28;20017;-73
2023/01/18 08:55:39;;;;;;;4.18;1.05;;;;;;;19.74;31.80;93474.09;5067440;28;20025;-73
2023/01/18 08:58:05;;;;;;;6.05;1.40;;;;;;;19.55;32.48;93431.53;5066745;28;20025;-72
2023/01/18 09:00:30;;;;;;;5.30;1.15;;;;;;;20.61;30.69;93417.72;5067682;28;20039;-73
2023/01/18 09:02:56;;;;;;;5.20;1.40;;;;;;;20.59;30.21;93448.22;5066254;28;20111;-73
2023/01/18 09:05:23;;;;;;;7.75;1.52;;;;;;;20.41;30.35;93439.41;5066726;28;20028;-73
2023/01/18 09:07:49;;;;;;;6.90;1.50;;;;;;;20.53;30.18;93473.47;5065714;28;20024;-72
2023/01/18 09:10:15;;;;;;;3.88;0.80;;;;;;;20.66;30.47;93495.78;5066389;28;20035;-72
2023/01/18 09:12:41;;;;;;;5.10;1.13;;;;;;;20.69;29.92;93488.34;5065525;28;20400;-72
2023/01/18 09:15:07;;;;;;;6.50;1.13;;;;;;;20.40;30.58;93493.69;5066292;28;20471;-72
2023/01/18 09:17:32;;;;;;;3.95;1.00;;;;;;;20.48;31.05;93481.94;5065720;28;20079;-73
2023/01/18 09:19:58;;;;;;;5.13;1.40;;;;;;;20.63;30.52;93527.56;5066111;28;20104;-73
2023/01/18 09:22:23;;;;;;;4.72;1.13;;;;;;;20.60;30.56;93483.97;5067914;28;20024;-73
2023/01/18 09:24:49;;;;;;;5.88;1.05;;;;;;;19.78;31.71;93454.97;5065380;28;20145;-73
2023/01/18 09:27:15;;;;;;;4.95;1.52;;;;;;;20.38;30.69;93481.56;5067518;28;20103;-73
2023/01/18 09:29:42;;;;;;;6.50;1.23;;;;;;;19.99;31.37;93485.81;5065146;28;20507;-73
2023/01/18 09:32:07;;;;;;;6.60;1.35;;;;;;;20.14;31.37;93499.25;5067356;28;20564;-74
2023/01/18 09:34:34;;;;;;;7.45;1.80;;;;;;;20.32;30.81;93517.22;5065199;28;20055;-72
2023/01/18 09:37:00;;;;;;;6.95;1.25;;;;;;;20.47;31.12;93495.13;5067023;28;20031;-73
2023/01/18 09:39:26;;;;;;;5.28;1.50;;;;;;;20.10;31.30;93499.56;5067280;28;20039;-72
2023/01/18 09:41:54;;;;;;;5.78;1.27;;;;;;;20.55;30.67;93458.97;5066744;28;20024;-72
2023/01/18 09:44:35;;;;;;;8.05;1.02;;;;;;;20.35;31.08;93502.91;5065907;28;20046;-73
2023/01/18 09:47:06;;;;;;;6.55;1.33;;;;;;;20.46;30.74;93468.50;5067569;28;20028;-72
2023/01/18 09:49:36;;;;;;;3.50;1.10;;;;;;;20.75;30.64;93491.78;5067392;28;20062;-73
2023/01/18 09:52:07;;;;;;;3.22;1.02;;;;;;;20.92;30.28;93469.09;5066218;28;20020;-73
2023/01/18 09:54:55;;;;;;;7.53;1.30;;;;;;;21.13;29.92;93463.59;5065214;28;20093;-72
2023/01/18 09:57:36;;;;;;;7.50;1.02;;;;;;;20.83;29.82;93461.19;5066885;28;20032;-72
2023/01/18 10:00:07;;;;;;;4.45;1.30;;;;;;;21.16;29.36;93482.81;5066213;28;20020;-72
2023/01/18 10:02:38;;;;;;;4.75;1.50;;;;;;;21.10;29.79;93607.88;5065220;28;20111;-72
2023/01/18 10:05:17;;;;;;;6.43;1.25;;;;;;;21.40;28.89;93489.44;5065301;28;20506;-72
2023/01/18 10:08:02;;;;;;;4.60;1.48;;;;;;;21.52;28.80;93490.69;5064835;28;20089;-72
2023/01/18 10:10:33;;;;;;;4.32;1.20;;;;;;;21.48;28.61;93529.41;5065139;28;20029;-73
2023/01/18 10:13:28;;;;;;;6.15;1.17;;;;;;;21.68;28.47;93483.19;5047987;28;20380;-73
2023/01/18 10:15:54;;;;;;;9.88;1.35;;;;;;;21.41;28.84;93466.53;5043804;28;20051;-72
2023/01/18 10:18:20;;;;;;;5.57;1.50;;;;;;;21.44;28.67;93470.28;5065373;28;20482;-72
2023/01/18 10:20:58;;;;;;;6.45;1.50;;;;;;;21.18;28.79;93459.91;5065687;28;20032;-72
2023/01/18 10:23:33;;;;;;;3.47;1.05;;;;;;;20.91;29.34;93448.06;5065020;28;20021;-73
2023/01/18 10:26:06;;;;;;;7.95;1.38;;;;;;;21.01;29.27;93487.47;5064899;28;20051;-73
2023/01/18 10:28:38;;;;;;;6.10;1.38;;;;;;;21.21;28.64;93472.78;5065152;28;20024;-74
2023/01/18 10:31:20;;;;;;;5.28;1.13;;;;;;;21.47;28.41;93463.59;5064734;28;20036;-74
2023/01/18 10:33:47;;;;;;;6.18;1.45;;;;;;;22.07;27.58;93538.19;5064428;28;20025;-72
2023/01/18 10:36:16;;;;;;;5.57;1.10;;;;;;;21.94;27.37;93505.44;5048578;28;20116;-73
2023/01/18 10:38:42;;;;;;;9.45;1.60;;;;;;;21.99;27.50;93487.75;5064050;28;20082;-72
2023/01/18 10:41:16;;;;;;;7.55;1.63;;;;;;;22.00;27.59;93474.53;5064858;28;20028;-72
2023/01/18 10:43:43;;;;;;;6.85;1.60;;;;;;;21.93;27.73;93584.31;5064502;28;20025;-73
2023/01/18 10:46:14;;;;;;;6.75;1.15;;;;;;;21.51;28.07;93519.19;5065960;28;20024;-72
2023/01/18 10:48:53;;;;;;;6.63;1.50;;;;;;;21.45;28.17;93528.44;5047810;28;20032;-73
2023/01/18 10:51:48;;;;;;;5.10;1.15;;;;;;;21.84;27.88;93526.78;5064090;28;20539;-72
2023/01/18 10:54:16;;;;;;;4.97;1.17;;;;;;;22.33;27.12;93525.38;5043491;28;20041;-73
2023/01/18 10:56:41;;;;;;;7.43;1.95;;;;;;;22.16;27.31;93551.75;5043261;28;20029;-72
2023/01/18 10:59:25;;;;;;;10.40;1.15;;;;;;;21.73;27.80;93504.66;5026665;28;20550;-73
2023/01/18 11:01:53;;;;;;;11.18;1.65;;;;;;;21.82;27.89;93551.75;5026878;28;20037;-73
2023/01/18 11:04:22;;;;;;;9.88;1.50;;;;;;;21.64;27.98;93505.16;5026120;28;20503;-72
2023/01/18 11:06:55;;;;;;;5.55;1.50;;;;;;;21.68;27.73;93514.72;5043221;28;20768;-73
2023/01/18 11:09:40;;;;;;;;;;;;;;;21.83;27.89;93530.88;5026898;28;20032;-73
2023/01/18 11:12:41;;;;;;;4.43;1.10;;;;;;;22.27;27.18;93531.13;5026571;28;19920;-74
2023/01/18 11:15:12;;;;;;;4.40;1.30;;;;;;;21.53;28.28;93502.63;5043330;28;20032;-72
2023/01/18 11:18:01;;;;;;;8.80;1.30;;;;;;;22.01;27.46;93526.38;5025542;28;20045;-73
2023/01/18 11:20:34;;;;;;;4.68;1.20;;;;;;;22.50;26.42;93498.44;5026917;28;20116;-73
2023/01/18 11:23:00;;;;;;;7.18;1.10;;;;;;;22.71;26.04;93525.63;5043457;28;20029;-73
2023/01/18 11:25:54;;;;;;;6.53;1.60;;;;;;;22.77;26.03;93506.66;5026160;28;20135;-74
2023/01/18 11:28:25;;;;;;;6.47;1.10;;;;;;;22.50;26.64;93501.25;5042646;28;20037;-72
2023/01/18 11:31:24;;;;;;;8.13;1.58;;;;;;;22.80;26.10;93562.31;5046395;28;20068;-74
2023/01/18 11:33:58;;;;;;;7.75;1.25;;;;;;;22.32;26.72;93580.63;5055940;28;20056;-73
2023/01/18 11:36:33;;;;;;;6.13;1.73;;;;;;;22.96;25.92;93521.16;5065676;28;20514;-74
2023/01/18 11:39:17;;;;;;;7.53;1.45;;;;;;;22.74;26.05;93547.69;5065334;28;20033;-74
2023/01/18 11:41:42;;;;;;;8.13;1.58;;;;;;;22.82;26.03;93516.16;5063964;28;20446;-73
2023/01/18 11:44:17;;;;;;;7.50;1.40;;;;;;;23.43;25.71;93531.25;5065445;28;20036;-74
2023/01/18 11:46:45;;;;;;;10.82;1.75;;;;;;;23.13;25.46;93534.69;5065037;28;20044;-73
2023/01/18 11:49:22;;;;;;;11.02;2.03;;;;;;;23.14;25.39;93533.38;5064395;28;20024;-73
2023/01/18 11:51:55;;;;;;;7.80;1.30;;;;;;;23.48;24.81;93538.00;5063424;28;20040;-73
2023/01/18 11:54:29;;;;;;;3.90;1.20;;;;;;;23.33;25.35;93535.88;5047458;28;20017;-73
2023/01/18 11:56:58;;;;;;;5.30;1.35;;;;;;;23.59;24.78;93541.22;5063466;28;20407;-72
2023/01/18 11:59:33;;;;;;;5.90;1.15;;;;;;;24.33;23.95;93554.50;5047518;28;20153;-72
2023/01/18 12:02:01;;;;;;;5.45;1.48;;;;;;;23.85;24.00;93531.03;5064408;28;20089;-74
2023/01/18 12:05:04;;;;;;;6.43;1.50;;;;;;;23.35;24.88;93566.94;5065647;28;20111;-72
2023/01/18 12:07:53;;;;;;;4.32;1.00;;;;;;;23.38;24.55;93568.63;5067877;28;20028;-73
2023/01/18 12:10:27;;;;;;;11.63;1.85;;;;;;;24.30;23.69;93620.19;5065785;28;20527;-72
2023/01/18 12:13:10;;;;;;;6.75;1.25;;;;;;;23.69;24.52;93563.19;5066234;28;20039;-73
2023/01/18 12:15:52;;;;;;;7.93;1.60;;;;;;;23.43;24.51;93555.75;5068914;28;20055;-73
2023/01/18 12:18:46;;;;;;;5.38;1.23;;;;;;;22.52;25.81;93553.88;5067216;28;20125;-73